sensor_id;sensor_type;location;lat;lon;timestamp;temperature;humidity
23568;DHT22;11962;50.838;4.430;2023-12-04T00:00:06;4.90;99.90
23568;DHT22;11962;50.838;4.430;2023-12-04T00:02:32;4.80;99.90
23568;DHT22;11962;50.838;4.430;2023-12-04T00:04:58;4.80;99.90
23568;DHT22;11962;50.838;4.430;2023-12-04T00:07:24;4.80;99.90
23568;DHT22;11962;50.838;4.430;2023-12-04T00:09:50;4.90;99.90
23568;DHT22;11962;50.838;4.430;2023-12-04T00:12:15;4.90;99.90
23568;DHT22;11962;50.838;4.430;2023-12-04T00:14:41;4.80;99.90
23568;DHT22;11962;50.838;4.430;2023-12-04T00:17:07;4.80;99.90
23568;DHT22;11962;50.838;4.430;2023-12-04T00:19:32;4.80;99.90
23568;DHT22;11962;50.838;4.430;2023-12-04T00:21:58;4.80;99.90
23568;DHT22;11962;50.838;4.430;2023-12-04T00:24:24;4.80;99.90
23568;DHT22;11962;50.838;4.430;2023-12-04T00:26:50;4.80;99.90
23568;DHT22;11962;50.838;4.430;2023-12-04T00:29:15;4.70;99.90
23568;DHT22;11962;50.838;4.430;2023-12-04T00:31:41;4.70;99.90
23568;DHT22;11962;50.838;4.430;2023-12-04T00:34:07;4.70;99.90
23568;DHT22;11962;50.838;4.430;2023-12-04T00:36:33;4.70;99.90
23568;DHT22;11962;50.838;4.430;2023-12-04T00:38:58;4.70;99.90
23568;DHT22;11962;50.838;4.430;2023-12-04T00:41:24;4.70;99.90
23568;DHT22;11962;50.838;4.430;2023-12-04T00:43:50;4.70;99.90
23568;DHT22;11962;50.838;4.430;2023-12-04T00:46:15;4.60;99.90
23568;DHT22;11962;50.838;4.430;2023-12-04T00:48:41;4.60;99.90
23568;DHT22;11962;50.838;4.430;2023-12-04T00:51:07;4.60;99.90
23568;DHT22;11962;50.838;4.430;2023-12-04T00:53:33;4.70;99.90
23568;DHT22;11962;50.838;4.430;2023-12-04T00:55:58;4.70;99.90
23568;DHT22;11962;50.838;4.430;2023-12-04T00:58:24;4.70;99.90
23568;DHT22;11962;50.838;4.430;2023-12-04T01:00:50;4.70;99.90
23568;DHT22;11962;50.838;4.430;2023-12-04T01:03:17;4.70;99.90
23568;DHT22;11962;50.838;4.430;2023-12-04T01:05:43;4.70;99.90
23568;DHT22;11962;50.838;4.430;2023-12-04T01:08:09;4.60;99.90
23568;DHT22;11962;50.838;4.430;2023-12-04T01:10:34;4.60;99.90
23568;DHT22;11962;50.838;4.430;2023-12-04T01:13:00;4.70;99.90
23568;DHT22;11962;50.838;4.430;2023-12-04T01:15:26;4.70;99.90
23568;DHT22;11962;50.838;4.430;2023-12-04T01:17:52;4.70;99.90
23568;DHT22;11962;50.838;4.430;2023-12-04T01:20:17;4.80;99.90
23568;DHT22;11962;50.838;4.430;2023-12-04T01:22:43;4.80;99.90
23568;DHT22;11962;50.838;4.430;2023-12-04T01:25:09;4.80;99.90
23568;DHT22;11962;50.838;4.430;2023-12-04T01:27:35;4.80;99.90
23568;DHT22;11962;50.838;4.430;2023-12-04T01:30:04;4.80;99.90
23568;DHT22;11962;50.838;4.430;2023-12-04T01:32:30;4.70;99.90
23568;DHT22;11962;50.838;4.430;2023-12-04T01:34:56;4.70;99.90
23568;DHT22;11962;50.838;4.430;2023-12-04T01:37:21;4.60;99.90
23568;DHT22;11962;50.838;4.430;2023-12-04T01:39:47;4.70;99.90
23568;DHT22;11962;50.838;4.430;2023-12-04T01:42:13;4.70;99.90
23568;DHT22;11962;50.838;4.430;2023-12-04T01:44:38;4.70;99.90
23568;DHT22;11962;50.838;4.430;2023-12-04T01:47:04;4.70;99.90
23568;DHT22;11962;50.838;4.430;2023-12-04T01:49:31;4.70;99.90
23568;DHT22;11962;50.838;4.430;2023-12-04T01:51:57;4.70;99.90
23568;DHT22;11962;50.838;4.430;2023-12-04T01:54:23;4.70;99.90
23568;DHT22;11962;50.838;4.430;2023-12-04T01:56:49;4.70;99.90
23568;DHT22;11962;50.838;4.430;2023-12-04T01:59:15;4.60;99.90
23568;DHT22;11962;50.838;4.430;2023-12-04T02:01:42;4.60;99.90
23568;DHT22;11962;50.838;4.430;2023-12-04T02:04:08;4.60;99.90
23568;DHT22;11962;50.838;4.430;2023-12-04T02:06:34;4.70;99.90
23568;DHT22;11962;50.838;4.430;2023-12-04T02:09:01;4.80;99.90
23568;DHT22;11962;50.838;4.430;2023-12-04T02:11:28;4.80;99.90
23568;DHT22;11962;50.838;4.430;2023-12-04T02:13:54;4.70;99.90
23568;DHT22;11962;50.838;4.430;2023-12-04T02:16:20;4.80;99.90
23568;DHT22;11962;50.838;4.430;2023-12-04T02:18:49;4.80;99.90
23568;DHT22;11962;50.838;4.430;2023-12-04T02:21:16;4.80;99.90
23568;DHT22;11962;50.838;4.430;2023-12-04T02:23:41;4.80;99.90
23568;DHT22;11962;50.838;4.430;2023-12-04T02:26:15;4.70;99.90
23568;DHT22;11962;50.838;4.430;2023-12-04T02:28:46;4.70;99.90
23568;DHT22;11962;50.838;4.430;2023-12-04T02:31:16;4.80;99.90
23568;DHT22;11962;50.838;4.430;2023-12-04T02:33:45;4.70;99.90
23568;DHT22;11962;50.838;4.430;2023-12-04T02:36:12;4.70;99.90
23568;DHT22;11962;50.838;4.430;2023-12-04T02:38:38;4.70;99.90
23568;DHT22;11962;50.838;4.430;2023-12-04T02:41:05;4.70;99.90
23568;DHT22;11962;50.838;4.430;2023-12-04T02:43:31;4.80;99.90
23568;DHT22;11962;50.838;4.430;2023-12-04T02:45:59;4.80;99.90
23568;DHT22;11962;50.838;4.430;2023-12-04T02:48:24;4.80;99.90
23568;DHT22;11962;50.838;4.430;2023-12-04T02:50:50;4.80;99.90
23568;DHT22;11962;50.838;4.430;2023-12-04T02:53:16;4.70;99.90
23568;DHT22;11962;50.838;4.430;2023-12-04T02:55:41;4.70;99.90
23568;DHT22;11962;50.838;4.430;2023-12-04T02:58:07;4.80;99.90
23568;DHT22;11962;50.838;4.430;2023-12-04T03:00:33;4.60;99.90
23568;DHT22;11962;50.838;4.430;2023-12-04T03:02:58;4.60;99.90
23568;DHT22;11962;50.838;4.430;2023-12-04T03:05:24;4.60;99.90
23568;DHT22;11962;50.838;4.430;2023-12-04T03:07:50;4.60;99.90
23568;DHT22;11962;50.838;4.430;2023-12-04T03:10:16;4.70;99.90
23568;DHT22;11962;50.838;4.430;2023-12-04T03:12:41;4.80;99.90
23568;DHT22;11962;50.838;4.430;2023-12-04T03:15:07;4.80;99.90
23568;DHT22;11962;50.838;4.430;2023-12-04T03:17:33;4.80;99.90
23568;DHT22;11962;50.838;4.430;2023-12-04T03:19:59;4.80;99.90
23568;DHT22;11962;50.838;4.430;2023-12-04T03:22:24;4.80;99.90
23568;DHT22;11962;50.838;4.430;2023-12-04T03:24:50;4.80;99.90
23568;DHT22;11962;50.838;4.430;2023-12-04T03:27:16;4.80;99.90
23568;DHT22;11962;50.838;4.430;2023-12-04T03:29:42;4.90;99.90
23568;DHT22;11962;50.838;4.430;2023-12-04T03:32:07;4.90;99.90
23568;DHT22;11962;50.838;4.430;2023-12-04T03:34:33;4.90;99.90
23568;DHT22;11962;50.838;4.430;2023-12-04T03:36:59;4.90;99.90
23568;DHT22;11962;50.838;4.430;2023-12-04T03:39:24;4.90;99.90
23568;DHT22;11962;50.838;4.430;2023-12-04T03:41:50;4.80;99.90
23568;DHT22;11962;50.838;4.430;2023-12-04T03:44:16;4.80;99.90
23568;DHT22;11962;50.838;4.430;2023-12-04T03:46:41;4.80;99.90
23568;DHT22;11962;50.838;4.430;2023-12-04T03:49:07;4.70;99.90
23568;DHT22;11962;50.838;4.430;2023-12-04T03:51:33;4.60;99.90
23568;DHT22;11962;50.838;4.430;2023-12-04T03:53:59;4.70;99.90
23568;DHT22;11962;50.838;4.430;2023-12-04T03:56:24;4.70;99.90
23568;DHT22;11962;50.838;4.430;2023-12-04T03:58:51;4.70;99.90
23568;DHT22;11962;50.838;4.430;2023-12-04T04:01:17;4.70;99.90
23568;DHT22;11962;50.838;4.430;2023-12-04T04:03:42;4.80;99.90
23568;DHT22;11962;50.838;4.430;2023-12-04T04:06:09;4.80;99.90
23568;DHT22;11962;50.838;4.430;2023-12-04T04:08:35;4.80;99.90
23568;DHT22;11962;50.838;4.430;2023-12-04T04:11:00;4.90;99.90
23568;DHT22;11962;50.838;4.430;2023-12-04T04:13:26;4.90;99.90
23568;DHT22;11962;50.838;4.430;2023-12-04T04:15:52;4.90;99.90
23568;DHT22;11962;50.838;4.430;2023-12-04T04:18:17;4.80;99.90
23568;DHT22;11962;50.838;4.430;2023-12-04T04:20:43;4.80;99.90
23568;DHT22;11962;50.838;4.430;2023-12-04T04:23:09;4.90;99.90
23568;DHT22;11962;50.838;4.430;2023-12-04T04:25:35;4.90;99.90
23568;DHT22;11962;50.838;4.430;2023-12-04T04:28:00;4.90;99.90
23568;DHT22;11962;50.838;4.430;2023-12-04T04:30:26;4.80;99.90
23568;DHT22;11962;50.838;4.430;2023-12-04T04:32:52;4.80;99.90
23568;DHT22;11962;50.838;4.430;2023-12-04T04:35:17;4.90;99.90
23568;DHT22;11962;50.838;4.430;2023-12-04T04:37:43;4.90;99.90
23568;DHT22;11962;50.838;4.430;2023-12-04T04:40:09;4.90;99.90
23568;DHT22;11962;50.838;4.430;2023-12-04T04:42:35;4.90;99.90
23568;DHT22;11962;50.838;4.430;2023-12-04T04:45:00;5.00;99.90
23568;DHT22;11962;50.838;4.430;2023-12-04T04:47:26;4.90;99.90
23568;DHT22;11962;50.838;4.430;2023-12-04T04:49:53;4.90;99.90
23568;DHT22;11962;50.838;4.430;2023-12-04T04:52:18;5.00;99.90
23568;DHT22;11962;50.838;4.430;2023-12-04T04:54:44;5.00;99.90
23568;DHT22;11962;50.838;4.430;2023-12-04T04:57:10;5.00;99.90
23568;DHT22;11962;50.838;4.430;2023-12-04T04:59:36;5.10;99.90
23568;DHT22;11962;50.838;4.430;2023-12-04T05:02:01;5.10;99.90
23568;DHT22;11962;50.838;4.430;2023-12-04T05:04:27;5.20;99.90
23568;DHT22;11962;50.838;4.430;2023-12-04T05:06:53;5.20;99.90
23568;DHT22;11962;50.838;4.430;2023-12-04T05:09:19;5.10;99.90
23568;DHT22;11962;50.838;4.430;2023-12-04T05:11:45;5.10;99.90
23568;DHT22;11962;50.838;4.430;2023-12-04T05:14:10;5.10;99.90
23568;DHT22;11962;50.838;4.430;2023-12-04T05:16:36;5.20;99.90
23568;DHT22;11962;50.838;4.430;2023-12-04T05:19:02;5.20;99.90
23568;DHT22;11962;50.838;4.430;2023-12-04T05:21:27;5.20;99.90
23568;DHT22;11962;50.838;4.430;2023-12-04T05:23:53;5.20;99.90
23568;DHT22;11962;50.838;4.430;2023-12-04T05:26:19;5.20;99.90
23568;DHT22;11962;50.838;4.430;2023-12-04T05:28:45;5.20;99.90
23568;DHT22;11962;50.838;4.430;2023-12-04T05:31:11;5.20;99.90
23568;DHT22;11962;50.838;4.430;2023-12-04T05:33:37;5.20;99.90
23568;DHT22;11962;50.838;4.430;2023-12-04T05:36:04;5.30;99.90
23568;DHT22;11962;50.838;4.430;2023-12-04T05:38:30;5.30;99.90
23568;DHT22;11962;50.838;4.430;2023-12-04T05:40:57;5.40;99.90
23568;DHT22;11962;50.838;4.430;2023-12-04T05:43:23;5.40;99.90
23568;DHT22;11962;50.838;4.430;2023-12-04T05:45:49;5.40;99.90
23568;DHT22;11962;50.838;4.430;2023-12-04T05:48:15;5.50;99.90
23568;DHT22;11962;50.838;4.430;2023-12-04T05:50:40;5.50;99.90
23568;DHT22;11962;50.838;4.430;2023-12-04T05:53:06;5.60;99.90
23568;DHT22;11962;50.838;4.430;2023-12-04T05:55:33;5.70;99.90
23568;DHT22;11962;50.838;4.430;2023-12-04T05:57:59;5.60;99.90
23568;DHT22;11962;50.838;4.430;2023-12-04T06:00:24;5.70;99.90
23568;DHT22;11962;50.838;4.430;2023-12-04T06:02:50;5.60;99.90
23568;DHT22;11962;50.838;4.430;2023-12-04T06:05:16;5.60;99.90
23568;DHT22;11962;50.838;4.430;2023-12-04T06:07:42;5.60;99.90
23568;DHT22;11962;50.838;4.430;2023-12-04T06:10:08;5.50;99.90
23568;DHT22;11962;50.838;4.430;2023-12-04T06:12:34;5.60;99.90
23568;DHT22;11962;50.838;4.430;2023-12-04T06:15:00;5.50;99.90
23568;DHT22;11962;50.838;4.430;2023-12-04T06:17:26;5.50;99.90
23568;DHT22;11962;50.838;4.430;2023-12-04T06:19:53;5.50;99.90
23568;DHT22;11962;50.838;4.430;2023-12-04T06:22:19;5.40;99.90
23568;DHT22;11962;50.838;4.430;2023-12-04T06:24:48;5.50;99.90
23568;DHT22;11962;50.838;4.430;2023-12-04T06:27:18;5.50;99.90
23568;DHT22;11962;50.838;4.430;2023-12-04T06:29:47;5.50;99.90
23568;DHT22;11962;50.838;4.430;2023-12-04T06:32:16;5.50;99.90
23568;DHT22;11962;50.838;4.430;2023-12-04T06:35:02;5.50;99.90
23568;DHT22;11962;50.838;4.430;2023-12-04T06:37:29;5.50;99.90
23568;DHT22;11962;50.838;4.430;2023-12-04T06:39:57;5.50;99.90
23568;DHT22;11962;50.838;4.430;2023-12-04T06:42:26;5.50;99.90
23568;DHT22;11962;50.838;4.430;2023-12-04T06:44:56;5.50;99.90
23568;DHT22;11962;50.838;4.430;2023-12-04T06:47:23;5.50;99.90
23568;DHT22;11962;50.838;4.430;2023-12-04T06:49:49;5.60;99.90
23568;DHT22;11962;50.838;4.430;2023-12-04T06:52:18;5.60;99.90
23568;DHT22;11962;50.838;4.430;2023-12-04T06:54:44;5.70;99.90
23568;DHT22;11962;50.838;4.430;2023-12-04T06:57:11;5.70;99.90
23568;DHT22;11962;50.838;4.430;2023-12-04T06:59:43;5.60;99.90
23568;DHT22;11962;50.838;4.430;2023-12-04T07:02:09;5.50;99.90
23568;DHT22;11962;50.838;4.430;2023-12-04T07:04:35;5.60;99.90
23568;DHT22;11962;50.838;4.430;2023-12-04T07:07:05;5.60;99.90
23568;DHT22;11962;50.838;4.430;2023-12-04T07:09:35;5.60;99.90
23568;DHT22;11962;50.838;4.430;2023-12-04T07:12:01;5.70;99.90
23568;DHT22;11962;50.838;4.430;2023-12-04T07:14:28;5.70;99.90
23568;DHT22;11962;50.838;4.430;2023-12-04T07:16:54;5.70;99.90
23568;DHT22;11962;50.838;4.430;2023-12-04T07:19:20;5.70;99.90
23568;DHT22;11962;50.838;4.430;2023-12-04T07:21:46;5.70;99.90
23568;DHT22;11962;50.838;4.430;2023-12-04T07:24:12;5.70;99.90
23568;DHT22;11962;50.838;4.430;2023-12-04T07:26:37;5.70;99.90
23568;DHT22;11962;50.838;4.430;2023-12-04T07:29:03;5.60;99.90
23568;DHT22;11962;50.838;4.430;2023-12-04T07:31:29;5.60;99.90
23568;DHT22;11962;50.838;4.430;2023-12-04T07:33:55;5.70;99.90
23568;DHT22;11962;50.838;4.430;2023-12-04T07:36:22;5.60;99.90
23568;DHT22;11962;50.838;4.430;2023-12-04T07:38:47;5.70;99.90
23568;DHT22;11962;50.838;4.430;2023-12-04T07:41:14;5.70;99.90
23568;DHT22;11962;50.838;4.430;2023-12-04T07:43:40;5.70;99.90
23568;DHT22;11962;50.838;4.430;2023-12-04T07:46:06;5.70;99.90
23568;DHT22;11962;50.838;4.430;2023-12-04T07:48:34;5.70;99.90
23568;DHT22;11962;50.838;4.430;2023-12-04T07:51:00;5.70;99.90
23568;DHT22;11962;50.838;4.430;2023-12-04T07:53:25;5.80;99.90
23568;DHT22;11962;50.838;4.430;2023-12-04T07:55:51;5.80;99.90
23568;DHT22;11962;50.838;4.430;2023-12-04T07:58:17;5.80;99.90
23568;DHT22;11962;50.838;4.430;2023-12-04T08:00:47;5.80;99.90
23568;DHT22;11962;50.838;4.430;2023-12-04T08:03:13;5.70;99.90
23568;DHT22;11962;50.838;4.430;2023-12-04T08:05:39;5.70;99.90
23568;DHT22;11962;50.838;4.430;2023-12-04T08:08:04;5.70;99.90
23568;DHT22;11962;50.838;4.430;2023-12-04T08:10:30;5.70;99.90
23568;DHT22;11962;50.838;4.430;2023-12-04T08:12:57;5.70;99.90
23568;DHT22;11962;50.838;4.430;2023-12-04T08:15:22;5.80;99.90
23568;DHT22;11962;50.838;4.430;2023-12-04T08:17:48;5.70;99.90
23568;DHT22;11962;50.838;4.430;2023-12-04T08:20:14;5.70;99.90
23568;DHT22;11962;50.838;4.430;2023-12-04T08:22:41;5.60;99.90
23568;DHT22;11962;50.838;4.430;2023-12-04T08:25:07;5.60;99.90
23568;DHT22;11962;50.838;4.430;2023-12-04T08:27:33;5.60;99.90
23568;DHT22;11962;50.838;4.430;2023-12-04T08:29:59;5.60;99.90
23568;DHT22;11962;50.838;4.430;2023-12-04T08:32:25;5.60;99.90
23568;DHT22;11962;50.838;4.430;2023-12-04T08:34:53;5.70;99.90
23568;DHT22;11962;50.838;4.430;2023-12-04T08:37:20;5.70;99.90
23568;DHT22;11962;50.838;4.430;2023-12-04T08:39:46;5.70;99.90
23568;DHT22;11962;50.838;4.430;2023-12-04T08:42:12;5.80;99.90
23568;DHT22;11962;50.838;4.430;2023-12-04T08:44:37;5.80;99.90
23568;DHT22;11962;50.838;4.430;2023-12-04T08:47:04;5.80;99.90
23568;DHT22;11962;50.838;4.430;2023-12-04T08:49:30;5.70;99.90
23568;DHT22;11962;50.838;4.430;2023-12-04T08:51:59;5.70;99.90
23568;DHT22;11962;50.838;4.430;2023-12-04T08:54:25;5.70;99.90
23568;DHT22;11962;50.838;4.430;2023-12-04T08:56:50;5.70;99.90
23568;DHT22;11962;50.838;4.430;2023-12-04T08:59:16;5.60;99.90
23568;DHT22;11962;50.838;4.430;2023-12-04T09:01:45;5.60;99.90
23568;DHT22;11962;50.838;4.430;2023-12-04T09:04:11;5.60;99.90
23568;DHT22;11962;50.838;4.430;2023-12-04T09:06:37;5.50;99.90
23568;DHT22;11962;50.838;4.430;2023-12-04T09:09:03;5.40;99.90
23568;DHT22;11962;50.838;4.430;2023-12-04T09:11:29;5.30;99.90
23568;DHT22;11962;50.838;4.430;2023-12-04T09:13:55;5.20;99.90
23568;DHT22;11962;50.838;4.430;2023-12-04T09:16:21;5.20;99.90
23568;DHT22;11962;50.838;4.430;2023-12-04T09:18:46;5.20;99.90
23568;DHT22;11962;50.838;4.430;2023-12-04T09:21:12;5.30;99.90
23568;DHT22;11962;50.838;4.430;2023-12-04T09:23:38;5.40;99.90
23568;DHT22;11962;50.838;4.430;2023-12-04T09:26:04;5.40;99.90
23568;DHT22;11962;50.838;4.430;2023-12-04T09:28:30;5.40;99.90
23568;DHT22;11962;50.838;4.430;2023-12-04T09:30:55;5.50;99.90
23568;DHT22;11962;50.838;4.430;2023-12-04T09:33:21;5.50;99.90
23568;DHT22;11962;50.838;4.430;2023-12-04T09:35:47;5.50;99.90
23568;DHT22;11962;50.838;4.430;2023-12-04T09:38:12;5.50;99.90
23568;DHT22;11962;50.838;4.430;2023-12-04T09:40:38;5.40;99.90
23568;DHT22;11962;50.838;4.430;2023-12-04T09:43:06;5.40;99.90
23568;DHT22;11962;50.838;4.430;2023-12-04T09:45:32;5.40;99.90
23568;DHT22;11962;50.838;4.430;2023-12-04T09:47:59;5.30;99.90
23568;DHT22;11962;50.838;4.430;2023-12-04T09:50:25;5.20;99.90
23568;DHT22;11962;50.838;4.430;2023-12-04T09:52:51;5.20;99.90
23568;DHT22;11962;50.838;4.430;2023-12-04T09:55:20;5.10;99.90
23568;DHT22;11962;50.838;4.430;2023-12-04T09:57:46;5.00;99.90
23568;DHT22;11962;50.838;4.430;2023-12-04T10:00:13;5.10;99.90
23568;DHT22;11962;50.838;4.430;2023-12-04T10:02:40;5.00;99.90
23568;DHT22;11962;50.838;4.430;2023-12-04T10:05:07;5.00;99.90
23568;DHT22;11962;50.838;4.430;2023-12-04T10:07:33;5.00;99.90
23568;DHT22;11962;50.838;4.430;2023-12-04T10:09:59;4.90;99.90
23568;DHT22;11962;50.838;4.430;2023-12-04T10:12:25;4.90;99.90
23568;DHT22;11962;50.838;4.430;2023-12-04T10:15:11;4.90;99.90
23568;DHT22;11962;50.838;4.430;2023-12-04T13:46:11;6.30;99.90
23568;DHT22;11962;50.838;4.430;2023-12-04T13:48:37;6.30;99.90
23568;DHT22;11962;50.838;4.430;2023-12-04T13:51:06;6.30;99.90
23568;DHT22;11962;50.838;4.430;2023-12-04T13:53:32;6.30;99.90
23568;DHT22;11962;50.838;4.430;2023-12-04T13:55:58;6.30;99.90
23568;DHT22;11962;50.838;4.430;2023-12-04T13:58:27;6.40;99.90
23568;DHT22;11962;50.838;4.430;2023-12-04T14:01:05;6.30;99.90
23568;DHT22;11962;50.838;4.430;2023-12-04T14:03:42;6.40;99.90
23568;DHT22;11962;50.838;4.430;2023-12-04T14:06:08;6.40;99.90
23568;DHT22;11962;50.838;4.430;2023-12-04T14:08:35;6.40;99.90
23568;DHT22;11962;50.838;4.430;2023-12-04T14:11:04;6.40;99.90
23568;DHT22;11962;50.838;4.430;2023-12-04T14:13:32;6.40;99.90
23568;DHT22;11962;50.838;4.430;2023-12-04T14:15:58;6.40;99.90
23568;DHT22;11962;50.838;4.430;2023-12-04T14:18:24;6.40;99.90
23568;DHT22;11962;50.838;4.430;2023-12-04T14:20:51;6.30;99.90
23568;DHT22;11962;50.838;4.430;2023-12-04T14:23:17;6.30;99.90
23568;DHT22;11962;50.838;4.430;2023-12-04T14:25:45;6.30;99.90
23568;DHT22;11962;50.838;4.430;2023-12-04T14:28:10;6.20;99.90
23568;DHT22;11962;50.838;4.430;2023-12-04T14:30:37;6.20;99.90
23568;DHT22;11962;50.838;4.430;2023-12-04T14:33:03;6.20;99.90
23568;DHT22;11962;50.838;4.430;2023-12-04T14:35:28;6.30;99.90
23568;DHT22;11962;50.838;4.430;2023-12-04T14:37:54;6.30;99.90
23568;DHT22;11962;50.838;4.430;2023-12-04T14:40:20;6.30;99.90
23568;DHT22;11962;50.838;4.430;2023-12-04T14:42:46;6.30;99.90
23568;DHT22;11962;50.838;4.430;2023-12-04T14:45:13;6.30;99.90
23568;DHT22;11962;50.838;4.430;2023-12-04T14:47:39;6.40;99.90
23568;DHT22;11962;50.838;4.430;2023-12-04T14:50:06;6.40;99.90
23568;DHT22;11962;50.838;4.430;2023-12-04T14:52:33;6.50;99.90
23568;DHT22;11962;50.838;4.430;2023-12-04T14:55:00;6.50;99.90
23568;DHT22;11962;50.838;4.430;2023-12-04T14:57:35;6.40;99.90
23568;DHT22;11962;50.838;4.430;2023-12-04T15:00:10;6.40;99.90
23568;DHT22;11962;50.838;4.430;2023-12-04T15:02:36;6.40;99.90
23568;DHT22;11962;50.838;4.430;2023-12-04T15:05:21;6.50;99.90
23568;DHT22;11962;50.838;4.430;2023-12-04T15:08:05;6.50;99.90
23568;DHT22;11962;50.838;4.430;2023-12-04T15:10:46;6.40;99.90
23568;DHT22;11962;50.838;4.430;2023-12-04T15:13:18;6.50;99.90
23568;DHT22;11962;50.838;4.430;2023-12-04T15:15:55;6.50;99.90
23568;DHT22;11962;50.838;4.430;2023-12-04T15:18:40;6.40;99.90
23568;DHT22;11962;50.838;4.430;2023-12-04T15:21:09;6.30;99.90
23568;DHT22;11962;50.838;4.430;2023-12-04T15:23:35;6.30;99.90
23568;DHT22;11962;50.838;4.430;2023-12-04T15:26:01;6.30;99.90
23568;DHT22;11962;50.838;4.430;2023-12-04T15:28:27;6.30;99.90
23568;DHT22;11962;50.838;4.430;2023-12-04T15:30:53;6.30;99.90
23568;DHT22;11962;50.838;4.430;2023-12-04T15:33:21;6.30;99.90
23568;DHT22;11962;50.838;4.430;2023-12-04T15:35:49;6.40;99.90
23568;DHT22;11962;50.838;4.430;2023-12-04T15:38:15;6.40;99.90
23568;DHT22;11962;50.838;4.430;2023-12-04T15:40:41;6.40;99.90
23568;DHT22;11962;50.838;4.430;2023-12-04T15:43:07;6.40;99.90
23568;DHT22;11962;50.838;4.430;2023-12-04T15:45:33;6.50;99.90
23568;DHT22;11962;50.838;4.430;2023-12-04T15:47:58;6.40;99.90
23568;DHT22;11962;50.838;4.430;2023-12-04T15:50:24;6.40;99.90
23568;DHT22;11962;50.838;4.430;2023-12-04T15:52:51;6.50;99.90
23568;DHT22;11962;50.838;4.430;2023-12-04T15:55:16;6.50;99.90
23568;DHT22;11962;50.838;4.430;2023-12-04T15:57:42;6.60;99.90
23568;DHT22;11962;50.838;4.430;2023-12-04T16:00:08;6.60;99.90
23568;DHT22;11962;50.838;4.430;2023-12-04T16:02:41;6.70;99.90
23568;DHT22;11962;50.838;4.430;2023-12-04T16:05:07;6.70;99.90
23568;DHT22;11962;50.838;4.430;2023-12-04T16:07:36;6.80;99.90
23568;DHT22;11962;50.838;4.430;2023-12-04T16:10:02;6.80;99.90
23568;DHT22;11962;50.838;4.430;2023-12-04T16:12:28;6.70;99.90
23568;DHT22;11962;50.838;4.430;2023-12-04T16:14:54;6.80;99.90
23568;DHT22;11962;50.838;4.430;2023-12-04T16:17:19;6.80;99.90
23568;DHT22;11962;50.838;4.430;2023-12-04T16:19:45;6.90;99.90
23568;DHT22;11962;50.838;4.430;2023-12-04T16:22:11;6.90;99.90
23568;DHT22;11962;50.838;4.430;2023-12-04T16:24:37;6.90;99.90
23568;DHT22;11962;50.838;4.430;2023-12-04T16:27:04;6.90;99.90
23568;DHT22;11962;50.838;4.430;2023-12-04T16:29:31;6.90;99.90
23568;DHT22;11962;50.838;4.430;2023-12-04T16:31:59;7.00;99.90
23568;DHT22;11962;50.838;4.430;2023-12-04T16:34:26;7.10;99.90
23568;DHT22;11962;50.838;4.430;2023-12-04T16:36:52;7.10;99.90
23568;DHT22;11962;50.838;4.430;2023-12-04T16:39:18;7.20;99.90
23568;DHT22;11962;50.838;4.430;2023-12-04T16:41:46;7.10;99.90
23568;DHT22;11962;50.838;4.430;2023-12-04T16:44:12;7.10;99.90
23568;DHT22;11962;50.838;4.430;2023-12-04T16:46:43;7.20;99.90
23568;DHT22;11962;50.838;4.430;2023-12-04T16:49:09;7.20;99.90
23568;DHT22;11962;50.838;4.430;2023-12-04T16:51:35;7.30;99.90
23568;DHT22;11962;50.838;4.430;2023-12-04T16:54:00;7.40;99.90
23568;DHT22;11962;50.838;4.430;2023-12-04T16:56:26;7.40;99.90
23568;DHT22;11962;50.838;4.430;2023-12-04T16:58:52;7.40;99.90
23568;DHT22;11962;50.838;4.430;2023-12-04T17:01:18;7.40;99.90
23568;DHT22;11962;50.838;4.430;2023-12-04T17:03:44;7.50;99.90
23568;DHT22;11962;50.838;4.430;2023-12-04T17:06:09;7.50;99.90
23568;DHT22;11962;50.838;4.430;2023-12-04T17:08:36;7.50;99.90
23568;DHT22;11962;50.838;4.430;2023-12-04T17:11:01;7.50;99.90
23568;DHT22;11962;50.838;4.430;2023-12-04T17:13:27;7.50;99.90
23568;DHT22;11962;50.838;4.430;2023-12-04T17:15:53;7.40;99.90
23568;DHT22;11962;50.838;4.430;2023-12-04T17:18:19;7.50;99.90
23568;DHT22;11962;50.838;4.430;2023-12-04T17:20:45;7.50;99.90
23568;DHT22;11962;50.838;4.430;2023-12-04T17:23:10;7.50;99.90
23568;DHT22;11962;50.838;4.430;2023-12-04T17:25:36;7.40;99.90
23568;DHT22;11962;50.838;4.430;2023-12-04T17:28:03;7.40;99.90
23568;DHT22;11962;50.838;4.430;2023-12-04T17:30:29;7.40;99.90
23568;DHT22;11962;50.838;4.430;2023-12-04T17:32:55;7.50;99.90
23568;DHT22;11962;50.838;4.430;2023-12-04T17:35:21;7.50;99.90
23568;DHT22;11962;50.838;4.430;2023-12-04T17:37:47;7.50;99.90
23568;DHT22;11962;50.838;4.430;2023-12-04T17:40:13;7.40;99.90
23568;DHT22;11962;50.838;4.430;2023-12-04T17:42:39;7.50;99.90
23568;DHT22;11962;50.838;4.430;2023-12-04T17:45:05;7.50;99.90
23568;DHT22;11962;50.838;4.430;2023-12-04T17:47:31;7.40;99.90
23568;DHT22;11962;50.838;4.430;2023-12-04T17:49:57;7.40;99.90
23568;DHT22;11962;50.838;4.430;2023-12-04T17:52:23;7.50;99.90
23568;DHT22;11962;50.838;4.430;2023-12-04T17:54:48;7.50;99.90
23568;DHT22;11962;50.838;4.430;2023-12-04T17:57:14;7.60;99.90
23568;DHT22;11962;50.838;4.430;2023-12-04T17:59:40;7.60;99.90
23568;DHT22;11962;50.838;4.430;2023-12-04T18:02:08;7.60;99.90
23568;DHT22;11962;50.838;4.430;2023-12-04T18:04:36;7.50;99.90
23568;DHT22;11962;50.838;4.430;2023-12-04T18:07:03;7.50;99.90
23568;DHT22;11962;50.838;4.430;2023-12-04T18:09:30;7.40;99.90
23568;DHT22;11962;50.838;4.430;2023-12-04T18:11:56;7.40;99.90
23568;DHT22;11962;50.838;4.430;2023-12-04T18:14:23;7.40;99.90
23568;DHT22;11962;50.838;4.430;2023-12-04T18:16:49;7.40;99.90
23568;DHT22;11962;50.838;4.430;2023-12-04T18:19:15;7.40;99.90
23568;DHT22;11962;50.838;4.430;2023-12-04T18:21:40;7.40;99.90
23568;DHT22;11962;50.838;4.430;2023-12-04T18:24:06;7.40;99.90
23568;DHT22;11962;50.838;4.430;2023-12-04T18:26:32;7.40;99.90
23568;DHT22;11962;50.838;4.430;2023-12-04T18:28:59;7.40;99.90
23568;DHT22;11962;50.838;4.430;2023-12-04T18:31:25;7.40;99.90
23568;DHT22;11962;50.838;4.430;2023-12-04T18:33:51;7.30;99.90
23568;DHT22;11962;50.838;4.430;2023-12-04T18:36:17;7.40;99.90
23568;DHT22;11962;50.838;4.430;2023-12-04T18:41:15;7.50;99.90
23568;DHT22;11962;50.838;4.430;2023-12-04T18:43:41;7.50;99.90
23568;DHT22;11962;50.838;4.430;2023-12-04T18:46:07;7.60;99.90
23568;DHT22;11962;50.838;4.430;2023-12-04T18:48:34;7.50;99.90
23568;DHT22;11962;50.838;4.430;2023-12-04T18:51:01;7.50;99.90
23568;DHT22;11962;50.838;4.430;2023-12-04T18:53:27;7.50;99.90
23568;DHT22;11962;50.838;4.430;2023-12-04T18:55:53;7.60;99.90
23568;DHT22;11962;50.838;4.430;2023-12-04T18:58:19;7.60;99.90
23568;DHT22;11962;50.838;4.430;2023-12-04T19:00:45;7.70;99.90
23568;DHT22;11962;50.838;4.430;2023-12-04T19:03:11;7.70;99.90
23568;DHT22;11962;50.838;4.430;2023-12-04T19:05:37;7.70;99.90
23568;DHT22;11962;50.838;4.430;2023-12-04T19:08:03;7.70;99.90
23568;DHT22;11962;50.838;4.430;2023-12-04T19:10:28;7.70;99.90